createdAt,value
2022-11-03T00:01:12.712Z,60.75
2022-11-03T00:03:39.685Z,60.15
2022-11-03T00:06:06.841Z,59.13
2022-11-03T00:08:39.559Z,58.81
2022-11-03T00:11:14.005Z,58.45
2022-11-03T00:13:43.047Z,59.96
2022-11-03T00:16:12.394Z,60.73
2022-11-03T00:18:39.876Z,59.61
2022-11-03T00:21:09.704Z,59.52
2022-11-03T00:23:39.493Z,59.71
2022-11-03T00:26:11.283Z,59.01
2022-11-03T00:28:38.781Z,58.59
2022-11-03T00:31:14.415Z,59.27
2022-11-03T00:33:42.836Z,58.01
2022-11-03T00:36:16.939Z,57.62
2022-11-03T00:38:44.899Z,57.52
2022-11-03T00:41:12.742Z,56.69
2022-11-03T00:43:40.183Z,55.79
2022-11-03T00:46:08.388Z,55.23
2022-11-03T00:48:36.669Z,55.04
2022-11-03T00:51:15.979Z,55.69
2022-11-03T00:53:47.910Z,55.14
2022-11-03T00:56:20.354Z,55.55
2022-11-03T00:58:47.286Z,55.86
2022-11-03T01:01:19.973Z,55.47
2022-11-03T01:04:09.319Z,56.21
2022-11-03T01:06:50.567Z,56.39
2022-11-03T01:09:22.143Z,57.27
2022-11-03T01:12:11.928Z,56.38
2022-11-03T01:14:41.769Z,56.04
2022-11-03T01:17:14.299Z,56.60
2022-11-03T01:19:41.845Z,57.15
2022-11-03T01:22:10.993Z,57.03
2022-11-03T01:24:40.519Z,56.12
2022-11-03T01:27:08.751Z,56.87
2022-11-03T01:29:35.704Z,56.98
2022-11-03T01:32:02.532Z,56.19
2022-11-03T01:34:29.390Z,57.35
2022-11-03T01:36:56.258Z,59.18
2022-11-03T01:39:23.157Z,59.07
2022-11-03T01:41:51.726Z,61.23
2022-11-03T01:44:18.541Z,61.58
2022-11-03T01:46:59.564Z,61.54
2022-11-03T01:49:44.816Z,60.68
2022-11-03T01:52:47.980Z,60.74
2022-11-03T01:55:20.228Z,60.21
2022-11-03T01:57:55.843Z,59.26
2022-11-03T02:00:23.163Z,58.33
2022-11-03T02:02:50.693Z,59.05
2022-11-03T02:05:19.076Z,59.43
2022-11-03T02:08:14.077Z,58.83
2022-11-03T02:10:41.227Z,58.39
2022-11-03T02:13:19.710Z,58.25
2022-11-03T02:15:54.131Z,59.76
2022-11-03T02:18:26.401Z,59.01
2022-11-03T02:21:25.299Z,59.42
2022-11-03T02:24:13.372Z,58.47
2022-11-03T02:26:42.299Z,58.43
2022-11-03T02:29:09.184Z,59.01
2022-11-03T02:31:43.300Z,58.59
2022-11-03T02:34:16.724Z,59.31
2022-11-03T02:36:51.538Z,59.08
2022-11-03T02:39:30.037Z,58.31
2022-11-03T02:41:59.788Z,58.07
2022-11-03T02:44:28.636Z,57.85
2022-11-03T02:47:00.888Z,59.48
2022-11-03T02:49:28.205Z,59.88
2022-11-03T02:52:05.691Z,59.36
2022-11-03T02:54:38.608Z,58.56
2022-11-03T02:57:21.433Z,60.54
2022-11-03T03:00:13.221Z,61.29
2022-11-03T03:02:51.710Z,61.98
2022-11-03T03:05:21.443Z,62.33
2022-11-03T03:07:52.549Z,61.05
2022-11-03T03:10:26.637Z,60.81
2022-11-03T03:12:57.279Z,61.33
2022-11-03T03:15:38.079Z,61.47
2022-11-03T03:18:16.047Z,62.03
2022-11-03T03:20:59.996Z,61.42
2022-11-03T03:23:31.521Z,60.06
2022-11-03T03:26:03.401Z,62.31
2022-11-03T03:28:39.811Z,61.88
2022-11-03T03:31:11.847Z,62.04
2022-11-03T03:33:41.979Z,63.23
2022-11-03T03:36:15.956Z,63.89
2022-11-03T03:38:49.279Z,64.09
2022-11-03T03:41:23.153Z,63.96
2022-11-03T03:43:57.523Z,63.21
2022-11-03T03:46:29.450Z,64.08
2022-11-03T03:48:56.398Z,65.12
2022-11-03T03:51:26.637Z,66.07
2022-11-03T03:53:55.452Z,65.53
2022-11-03T03:56:33.013Z,66.33
2022-11-03T03:58:59.914Z,64.49
2022-11-03T04:01:27.056Z,63.75
2022-11-03T04:03:54.162Z,63.51
2022-11-03T04:06:21.095Z,64.89
2022-11-03T04:08:47.947Z,67.02
2022-11-03T04:11:33.521Z,65.64
2022-11-03T04:14:18.603Z,66.09
2022-11-03T04:17:04.013Z,67.70
2022-11-03T04:19:49.641Z,71.52
2022-11-03T04:22:16.446Z,68.51
2022-11-03T04:24:51.204Z,70.05
2022-11-03T04:27:41.367Z,71.34
2022-11-03T04:30:19.305Z,70.18
2022-11-03T04:32:51.211Z,67.35
2022-11-03T04:35:24.618Z,66.25
2022-11-03T04:38:14.727Z,66.75
2022-11-03T04:40:49.128Z,66.66
2022-11-03T04:43:20.668Z,67.35
2022-11-03T04:45:48.581Z,67.63
2022-11-03T04:48:27.157Z,68.44
2022-11-03T04:50:57.332Z,68.76
2022-11-03T04:53:28.268Z,69.05
2022-11-03T04:55:55.341Z,69.09
2022-11-03T04:58:24.127Z,68.64
2022-11-03T05:00:57.574Z,71.30
2022-11-03T05:03:27.789Z,72.21
2022-11-03T05:05:54.681Z,71.64
2022-11-03T05:08:22.254Z,70.55
2022-11-03T05:10:49.784Z,70.14
2022-11-03T05:13:28.999Z,70.38
2022-11-03T05:16:03.235Z,70.00
2022-11-03T05:18:33.971Z,68.62
2022-11-03T05:21:06.855Z,69.70
2022-11-03T05:23:40.646Z,71.10
2022-11-03T05:26:43.303Z,68.30
2022-11-03T05:29:10.630Z,64.62
2022-11-03T05:31:40.934Z,64.51
2022-11-03T05:34:32.706Z,64.31
2022-11-03T05:37:09.328Z,63.58
2022-11-03T05:39:37.560Z,57.69
2022-11-03T05:42:36.598Z,54.09
2022-11-03T05:45:15.611Z,48.80
2022-11-03T05:47:42.822Z,48.27
2022-11-03T05:50:25.287Z,48.15
2022-11-03T05:53:23.261Z,44.28
2022-11-03T05:55:50.156Z,41.82
2022-11-03T05:58:25.668Z,40.86
2022-11-03T06:00:53.082Z,40.86
2022-11-03T06:03:27.708Z,41.12
2022-11-03T06:05:55.905Z,40.64
2022-11-03T06:08:27.912Z,39.84
2022-11-03T06:11:00.200Z,39.91
2022-11-03T06:13:34.277Z,38.58
2022-11-03T06:16:17.826Z,38.55
2022-11-03T06:18:44.815Z,38.92
2022-11-03T06:21:16.474Z,39.88
2022-11-03T06:23:43.538Z,39.10
2022-11-03T06:26:25.533Z,38.19
2022-11-03T06:28:53.187Z,36.16
2022-11-03T06:31:27.637Z,33.60
2022-11-03T06:33:57.440Z,33.00
2022-11-03T06:36:32.663Z,31.31
2022-11-03T06:39:09.814Z,31.76
2022-11-03T06:41:37.258Z,32.33
2022-11-03T06:44:20.510Z,32.79
2022-11-03T06:46:47.482Z,32.85
2022-11-03T06:49:35.989Z,33.19
2022-11-03T06:52:18.098Z,36.22
2022-11-03T06:54:48.660Z,35.43
2022-11-03T06:57:18.807Z,34.53
2022-11-03T06:59:46.124Z,32.77
2022-11-03T07:02:41.808Z,34.14
2022-11-03T07:05:22.623Z,33.94
2022-11-03T07:07:51.901Z,34.27
2022-11-03T07:10:18.756Z,34.22
2022-11-03T07:12:45.865Z,34.11
2022-11-03T07:15:35.033Z,34.21
2022-11-03T07:18:03.848Z,35.74
2022-11-03T07:20:30.911Z,37.10
2022-11-03T07:23:01.481Z,36.33
2022-11-03T07:25:28.409Z,35.62
2022-11-03T07:27:57.623Z,37.51
2022-11-03T07:30:30.167Z,37.16
2022-11-03T07:33:21.137Z,39.72
2022-11-03T07:38:35.563Z,40.82
2022-11-03T07:41:02.558Z,38.23
2022-11-03T07:43:32.029Z,38.49
2022-11-03T07:46:01.996Z,39.06
2022-11-03T07:48:33.790Z,37.13
2022-11-03T07:51:06.229Z,35.97
2022-11-03T07:53:43.930Z,33.88
2022-11-03T07:56:19.284Z,32.35
2022-11-03T07:58:48.052Z,32.53
2022-11-03T08:01:36.659Z,30.00
2022-11-03T08:04:31.376Z,32.56
2022-11-03T08:06:58.377Z,34.79
2022-11-03T08:09:25.486Z,35.54
2022-11-03T08:11:52.435Z,35.90
2022-11-03T08:14:19.332Z,38.18
2022-11-03T08:16:46.471Z,40.04
2022-11-03T08:19:13.421Z,40.21
2022-11-03T08:21:40.258Z,40.94
2022-11-03T08:24:07.335Z,39.88
2022-11-03T08:26:34.271Z,39.68
2022-11-03T08:29:01.171Z,40.09
2022-11-03T08:31:28.139Z,39.11
2022-11-03T08:33:55.105Z,38.22
2022-11-03T08:36:22.066Z,36.62
2022-11-03T08:38:49.013Z,32.89
2022-11-03T08:41:15.914Z,32.27
2022-11-03T08:43:42.870Z,31.20
2022-11-03T08:46:17.034Z,30.14
2022-11-03T08:48:45.915Z,28.40
2022-11-03T08:51:14.778Z,25.97
2022-11-03T08:53:42.953Z,29.79
2022-11-03T08:56:12.973Z,29.73
2022-11-03T08:58:41.302Z,30.88
2022-11-03T09:01:10.163Z,29.32
2022-11-03T09:03:37.117Z,28.52
2022-11-03T09:06:04.263Z,30.42
2022-11-03T09:11:18.338Z,27.07
2022-11-03T09:13:45.172Z,27.08
2022-11-03T09:16:12.231Z,28.35
2022-11-03T09:18:39.118Z,26.97
2022-11-03T09:21:06.431Z,25.82
2022-11-03T09:23:33.436Z,27.14
2022-11-03T09:26:00.270Z,27.36
2022-11-03T09:28:27.109Z,28.76
2022-11-03T09:30:54.871Z,27.86
2022-11-03T09:33:21.883Z,27.35
2022-11-03T09:35:49.564Z,27.15
2022-11-03T09:38:17.326Z,28.67
2022-11-03T09:40:44.444Z,28.47
2022-11-03T09:43:11.920Z,27.10
2022-11-03T09:45:39.594Z,26.33
2022-11-03T09:48:10.756Z,27.04
2022-11-03T09:50:38.276Z,27.29
2022-11-03T09:53:05.948Z,27.98
2022-11-03T09:55:33.959Z,27.55
2022-11-03T09:58:10.747Z,25.14
2022-11-03T10:00:38.861Z,25.63
2022-11-03T10:03:07.068Z,28.27
2022-11-03T10:05:35.430Z,27.24
2022-11-03T10:08:12.451Z,27.09
2022-11-03T10:10:41.022Z,26.74
2022-11-03T10:13:09.853Z,25.03
2022-11-03T10:15:37.045Z,26.02
2022-11-03T10:18:03.982Z,26.40
2022-11-03T10:20:31.016Z,26.21
2022-11-03T10:22:57.955Z,26.48
2022-11-03T10:25:30.908Z,23.89
2022-11-03T10:28:18.527Z,23.28
2022-11-03T10:31:13.023Z,24.25
2022-11-03T10:34:00.692Z,28.54
2022-11-03T10:36:32.272Z,29.67
2022-11-03T10:39:02.439Z,32.32
2022-11-03T10:41:32.323Z,34.99
2022-11-03T10:44:08.702Z,35.83
2022-11-03T10:46:49.630Z,35.57
2022-11-03T10:49:19.794Z,37.85
2022-11-03T10:51:52.758Z,40.15
2022-11-03T10:54:24.919Z,38.71
2022-11-03T10:56:52.771Z,36.10
2022-11-03T10:59:33.043Z,35.10
2022-11-03T11:02:01.101Z,35.78
2022-11-03T11:04:28.315Z,37.05
2022-11-03T11:06:55.401Z,39.49
2022-11-03T11:09:28.148Z,41.48
2022-11-03T11:12:15.890Z,42.12
2022-11-03T11:15:30.520Z,41.71
2022-11-03T11:17:57.443Z,43.65
2022-11-03T11:20:36.479Z,44.14
2022-11-03T11:23:28.118Z,43.77
2022-11-03T11:26:26.303Z,44.77
2022-11-03T11:29:20.555Z,45.47
2022-11-03T11:31:47.481Z,46.48
2022-11-03T11:34:18.326Z,45.36
2022-11-03T11:36:49.953Z,45.58
2022-11-03T11:39:23.050Z,45.19
2022-11-03T11:42:21.530Z,45.54
2022-11-03T11:44:51.612Z,46.14
2022-11-03T11:47:26.639Z,46.72
2022-11-03T11:50:11.664Z,46.22
2022-11-03T11:52:44.856Z,46.71
2022-11-03T11:55:29.544Z,47.71
2022-11-03T11:57:58.286Z,48.54
2022-11-03T12:00:29.052Z,49.64
2022-11-03T12:02:57.239Z,49.16
2022-11-03T12:05:27.981Z,49.83
2022-11-03T12:07:55.872Z,48.35
2022-11-03T12:10:28.501Z,49.97
2022-11-03T12:12:56.774Z,49.77
2022-11-03T12:15:55.399Z,49.16
2022-11-03T12:18:29.001Z,49.73
2022-11-03T12:20:55.953Z,51.20
2022-11-03T12:23:39.983Z,51.87
2022-11-03T12:26:15.871Z,51.31
2022-11-03T12:28:43.489Z,50.32
2022-11-03T12:31:10.512Z,51.66
2022-11-03T12:33:37.449Z,52.29
2022-11-03T12:36:04.485Z,53.42
2022-11-03T12:38:31.409Z,55.17
2022-11-03T12:40:58.363Z,55.54
2022-11-03T12:43:25.231Z,55.65
2022-11-03T12:45:52.431Z,54.62
2022-11-03T12:48:19.794Z,55.24
2022-11-03T12:50:46.785Z,56.11
2022-11-03T12:53:13.649Z,55.53
2022-11-03T12:55:43.662Z,54.04
2022-11-03T12:58:11.756Z,55.85
2022-11-03T13:00:38.755Z,57.65
2022-11-03T13:03:05.921Z,59.48
2022-11-03T13:05:33.100Z,60.92
2022-11-03T13:07:59.920Z,61.03
2022-11-03T13:10:26.808Z,58.27
2022-11-03T13:12:53.878Z,56.66
2022-11-03T13:15:21.198Z,57.83
2022-11-03T13:20:36.080Z,61.52
2022-11-03T13:23:04.702Z,61.23
2022-11-03T13:25:31.912Z,62.50
2022-11-03T13:27:58.993Z,65.25
2022-11-03T13:30:27.178Z,68.27
2022-11-03T13:32:54.353Z,68.97
2022-11-03T13:35:25.188Z,69.79
2022-11-03T13:37:52.198Z,68.91
2022-11-03T13:40:50.390Z,69.01
2022-11-03T13:43:07.537Z,68.19
2022-11-03T13:45:34.960Z,68.25
2022-11-03T13:50:52.115Z,68.22
2022-11-03T13:56:08.816Z,70.51
2022-11-03T14:01:24.773Z,72.50
2022-11-03T14:06:39.197Z,74.91
2022-11-03T14:09:06.161Z,74.47
2022-11-03T14:11:51.547Z,76.17
2022-11-03T14:14:18.524Z,75.88
2022-11-03T14:16:45.495Z,76.18
2022-11-03T14:19:12.492Z,76.83
2022-11-03T14:21:42.765Z,76.47
2022-11-03T14:24:09.871Z,76.12
2022-11-03T14:26:44.456Z,77.06
2022-11-03T14:29:11.569Z,75.46
2022-11-03T14:31:38.602Z,75.59
2022-11-03T14:34:05.553Z,75.28
2022-11-03T14:36:32.515Z,76.22
2022-11-03T14:38:59.718Z,77.35
2022-11-03T14:41:45.388Z,77.19
2022-11-03T14:44:12.701Z,78.67
2022-11-03T14:46:39.649Z,79.72
2022-11-03T14:49:06.534Z,79.09
2022-11-03T14:51:33.361Z,79.82
2022-11-03T14:54:00.289Z,80.76
2022-11-03T14:56:27.498Z,83.44
2022-11-03T14:58:55.017Z,85.27
2022-11-03T15:01:21.964Z,86.04
2022-11-03T15:03:48.924Z,87.45
2022-11-03T15:06:15.828Z,85.87
2022-11-03T15:08:42.946Z,85.88
2022-11-03T15:11:10.653Z,86.09
2022-11-03T15:13:43.980Z,87.22
2022-11-03T15:16:14.127Z,86.99
2022-11-03T15:18:41.739Z,88.35
2022-11-03T15:21:08.642Z,91.21
2022-11-03T15:26:22.534Z,90.26
2022-11-03T15:28:49.515Z,90.89
2022-11-03T15:31:16.452Z,90.20
2022-11-03T15:33:43.359Z,90.05
2022-11-03T15:36:10.439Z,89.69
2022-11-03T15:38:37.405Z,89.09
2022-11-03T15:41:16.635Z,89.09
2022-11-03T15:43:45.171Z,88.58
2022-11-03T15:46:13.982Z,87.57
2022-11-03T15:48:41.250Z,85.84
2022-11-03T15:51:08.665Z,84.64
2022-11-03T15:53:35.707Z,82.11
2022-11-03T15:56:03.006Z,82.23
2022-11-03T15:58:33.848Z,83.68
2022-11-03T16:01:04.214Z,81.85
2022-11-03T16:03:32.254Z,81.35
2022-11-03T16:05:59.478Z,79.24
2022-11-03T16:08:26.485Z,78.29
2022-11-03T16:10:57.703Z,78.37
2022-11-03T16:13:25.505Z,78.13
2022-11-03T16:15:54.713Z,80.08
2022-11-03T16:18:22.033Z,80.43
2022-11-03T16:20:49.031Z,80.92
2022-11-03T16:23:15.859Z,82.00
2022-11-03T16:25:43.116Z,82.40
2022-11-03T16:28:10.549Z,82.08
2022-11-03T16:30:38.801Z,79.99
2022-11-03T16:33:06.050Z,79.36
2022-11-03T16:35:33.353Z,79.86
2022-11-03T16:38:00.401Z,80.21
2022-11-03T16:40:27.649Z,80.98
2022-11-03T16:42:55.241Z,79.96
2022-11-03T16:45:25.962Z,78.13
2022-11-03T16:47:53.008Z,79.58
2022-11-03T16:50:20.765Z,82.87
2022-11-03T16:52:49.377Z,83.06
2022-11-03T16:55:18.149Z,82.74
2022-11-03T16:57:46.269Z,83.30
2022-11-03T17:00:19.674Z,83.49
2022-11-03T17:02:47.895Z,83.46
2022-11-03T17:05:19.023Z,84.29
2022-11-03T17:07:52.856Z,81.36
2022-11-03T17:10:21.818Z,81.40
2022-11-03T17:12:49.932Z,82.88
2022-11-03T17:15:20.237Z,84.27
2022-11-03T17:17:47.699Z,83.48
2022-11-03T17:20:15.613Z,83.68
2022-11-03T17:22:42.741Z,82.91
2022-11-03T17:25:11.761Z,82.29
2022-11-03T17:27:45.592Z,82.66
2022-11-03T17:30:21.569Z,83.59
2022-11-03T17:32:51.427Z,84.93
2022-11-03T17:35:24.576Z,84.41
2022-11-03T17:37:52.788Z,84.54
2022-11-03T17:40:29.396Z,84.11
2022-11-03T17:42:56.904Z,86.53
2022-11-03T17:45:25.994Z,86.84
2022-11-03T17:47:54.060Z,86.49
2022-11-03T17:50:23.869Z,84.90
2022-11-03T17:52:52.606Z,83.64
2022-11-03T17:55:29.822Z,83.65
2022-11-03T17:58:00.636Z,85.42
2022-11-03T18:00:28.431Z,84.54
2022-11-03T18:02:56.517Z,84.93
2022-11-03T18:05:27.266Z,84.27
2022-11-03T18:07:55.412Z,83.67
2022-11-03T18:10:28.859Z,86.15
2022-11-03T18:13:18.221Z,84.95
2022-11-03T18:15:47.733Z,84.52
2022-11-03T18:18:18.873Z,83.33
2022-11-03T18:20:53.083Z,81.94
2022-11-03T18:23:26.001Z,83.54
2022-11-03T18:25:53.717Z,84.01
2022-11-03T18:28:20.759Z,83.07
2022-11-03T18:30:50.837Z,82.21
2022-11-03T18:33:25.885Z,81.11
2022-11-03T18:35:53.898Z,80.71
2022-11-03T18:38:24.026Z,80.88
2022-11-03T18:40:51.640Z,81.68
2022-11-03T18:43:23.397Z,81.24
2022-11-03T18:45:51.465Z,80.26
2022-11-03T18:48:21.952Z,79.21
2022-11-03T18:50:51.388Z,79.37
2022-11-03T18:53:21.602Z,79.55
2022-11-03T18:55:57.855Z,78.51
2022-11-03T18:58:25.744Z,78.67
2022-11-03T19:00:53.406Z,78.67
2022-11-03T19:03:22.801Z,78.21
2022-11-03T19:05:51.806Z,78.35
2022-11-03T19:08:30.572Z,78.14
2022-11-03T19:11:03.831Z,80.23
2022-11-03T19:13:37.814Z,81.88
2022-11-03T19:16:14.815Z,82.31
2022-11-03T19:18:43.038Z,81.47
2022-11-03T19:21:21.808Z,81.38
2022-11-03T19:23:49.671Z,81.93
2022-11-03T19:26:24.961Z,82.83
2022-11-03T19:28:56.358Z,83.08
2022-11-03T19:31:34.060Z,83.75
2022-11-03T19:34:01.928Z,83.52
2022-11-03T19:36:31.466Z,81.33
2022-11-03T19:38:59.527Z,80.12
2022-11-03T19:41:45.397Z,82.19
2022-11-03T19:44:13.837Z,83.88
2022-11-03T19:46:42.188Z,82.86
2022-11-03T19:49:15.138Z,81.70
2022-11-03T19:51:42.266Z,81.85
2022-11-03T19:54:18.271Z,83.55
2022-11-03T19:56:48.347Z,84.23
2022-11-03T19:59:16.832Z,82.51
2022-11-03T20:01:44.038Z,81.53
2022-11-03T20:04:11.097Z,81.48
2022-11-03T20:06:39.035Z,81.65
2022-11-03T20:09:08.708Z,80.85
2022-11-03T20:11:36.376Z,81.23
2022-11-03T20:14:04.339Z,84.11
2022-11-03T20:16:31.783Z,83.81
2022-11-03T20:18:58.689Z,83.45
2022-11-03T20:21:31.476Z,82.53
2022-11-03T20:24:01.214Z,82.34
2022-11-03T20:26:28.793Z,81.91
2022-11-03T20:28:58.413Z,81.47
2022-11-03T20:31:25.637Z,81.62
2022-11-03T20:33:52.558Z,80.79
2022-11-03T20:36:20.969Z,81.03
2022-11-03T20:38:52.743Z,81.20
2022-11-03T20:41:19.877Z,80.50
2022-11-03T20:43:47.776Z,80.06
2022-11-03T20:46:31.405Z,82.05
2022-11-03T20:48:59.228Z,83.25
2022-11-03T20:51:31.917Z,85.76
2022-11-03T20:53:59.619Z,85.11
2022-11-03T20:56:28.464Z,85.10
2022-11-03T20:58:56.092Z,85.40
2022-11-03T21:01:33.377Z,86.07
2022-11-03T21:04:01.774Z,84.03
2022-11-03T21:06:30.818Z,85.46
2022-11-03T21:08:59.048Z,87.90
2022-11-03T21:11:29.300Z,89.27
2022-11-03T21:14:11.748Z,89.38
2022-11-03T21:16:57.104Z,88.59
2022-11-03T21:19:45.297Z,89.45
2022-11-03T21:22:30.852Z,89.41
2022-11-03T21:25:01.656Z,87.09
2022-11-03T21:27:28.694Z,85.41
2022-11-03T21:29:59.277Z,84.65
2022-11-03T21:32:26.868Z,83.56
2022-11-03T21:34:53.785Z,82.32
2022-11-03T21:37:20.808Z,81.54
2022-11-03T21:39:47.761Z,81.19
2022-11-03T21:42:34.478Z,81.03
2022-11-03T21:45:01.648Z,82.89
2022-11-03T21:47:28.802Z,84.81
2022-11-03T21:49:55.813Z,86.01
2022-11-03T21:52:32.098Z,86.82
2022-11-03T21:55:03.325Z,88.17
2022-11-03T21:57:31.117Z,89.11
2022-11-03T22:00:00.937Z,90.65
2022-11-03T22:02:30.125Z,89.97
2022-11-03T22:04:57.927Z,89.37
2022-11-03T22:07:25.161Z,86.65
2022-11-03T22:09:52.288Z,86.94
2022-11-03T22:12:19.182Z,90.67
2022-11-03T22:15:04.589Z,91.34
2022-11-03T22:17:31.681Z,92.01
2022-11-03T22:20:17.155Z,90.89
2022-11-03T22:23:02.847Z,92.12
2022-11-03T22:25:47.963Z,91.22
2022-11-03T22:28:15.412Z,90.08
2022-11-03T22:31:00.926Z,89.58
2022-11-03T22:33:27.861Z,86.67
2022-11-03T22:36:21.553Z,86.00
2022-11-03T22:39:07.277Z,88.46
2022-11-03T22:41:52.915Z,91.13
2022-11-03T22:44:42.680Z,91.54
2022-11-03T22:47:11.226Z,91.35
2022-11-03T22:49:39.105Z,89.18
2022-11-03T22:52:05.978Z,88.57
2022-11-03T22:54:32.980Z,88.53
2022-11-03T22:56:59.886Z,88.64
2022-11-03T22:59:26.763Z,89.15
2022-11-03T23:01:54.202Z,88.66
2022-11-03T23:04:21.243Z,90.03
2022-11-03T23:06:48.254Z,90.84
2022-11-03T23:09:15.180Z,92.03
2022-11-03T23:11:42.218Z,90.54
2022-11-03T23:14:11.224Z,90.54
2022-11-03T23:16:43.285Z,91.19
2022-11-03T23:19:30.092Z,91.75
2022-11-03T23:21:57.516Z,92.35
2022-11-03T23:24:45.324Z,90.75
2022-11-03T23:27:12.860Z,87.80
2022-11-03T23:29:40.056Z,86.51
2022-11-03T23:32:07.218Z,86.60
2022-11-03T23:34:35.327Z,88.10
2022-11-03T23:37:03.129Z,90.35
2022-11-03T23:39:30.049Z,90.83
2022-11-03T23:41:57.026Z,91.65
2022-11-03T23:44:23.983Z,94.83
2022-11-03T23:47:09.393Z,95.95
2022-11-03T23:49:36.424Z,96.34
2022-11-03T23:52:03.352Z,95.58
2022-11-03T23:54:30.610Z,95.91
2022-11-03T23:57:16.395Z,96.44
2022-11-03T23:59:46.363Z,94.60
